sensor_id;sensor_type;location;lat;lon;timestamp;pressure;altitude;pressure_sealevel;temperature;humidity
76122;BME280;64853;53.200;6.080;2023-05-08T00:00:31;102229.97;;;20.39;48.37
76122;BME280;64853;53.200;6.080;2023-05-08T00:05:23;102217.22;;;20.38;48.69
76122;BME280;64853;53.200;6.080;2023-05-08T00:10:14;102225.78;;;20.36;48.22
76122;BME280;64853;53.200;6.080;2023-05-08T00:15:08;102212.22;;;20.35;48.64
76122;BME280;64853;53.200;6.080;2023-05-08T00:20:00;102205.56;;;20.31;48.48
76122;BME280;64853;53.200;6.080;2023-05-08T00:24:52;102210.22;;;20.30;48.13
76122;BME280;64853;53.200;6.080;2023-05-08T00:29:43;102216.03;;;20.29;47.98
76122;BME280;64853;53.200;6.080;2023-05-08T00:34:36;102207.72;;;20.29;48.20
76122;BME280;64853;53.200;6.080;2023-05-08T00:39:27;102204.41;;;20.27;48.26
76122;BME280;64853;53.200;6.080;2023-05-08T00:44:19;102197.19;;;20.26;48.37
76122;BME280;64853;53.200;6.080;2023-05-08T00:49:10;102199.41;;;20.24;48.26
76122;BME280;64853;53.200;6.080;2023-05-08T00:54:05;102202.44;;;20.22;47.86
76122;BME280;64853;53.200;6.080;2023-05-08T00:58:56;102199.94;;;20.20;48.23
76122;BME280;64853;53.200;6.080;2023-05-08T01:03:48;102193.59;;;20.20;47.87
76122;BME280;64853;53.200;6.080;2023-05-08T01:08:40;102196.63;;;20.18;47.94
76122;BME280;64853;53.200;6.080;2023-05-08T01:13:41;102196.91;;;20.17;48.25
76122;BME280;64853;53.200;6.080;2023-05-08T01:18:43;102200.47;;;20.12;47.92
76122;BME280;64853;53.200;6.080;2023-05-08T01:23:55;102211.28;;;20.14;47.86
76122;BME280;64853;53.200;6.080;2023-05-08T01:29:12;102207.09;;;20.11;47.79
76122;BME280;64853;53.200;6.080;2023-05-08T01:34:14;102204.31;;;20.11;47.85
76122;BME280;64853;53.200;6.080;2023-05-08T01:39:13;102203.78;;;20.09;47.71
76122;BME280;64853;53.200;6.080;2023-05-08T01:44:12;102213.16;;;20.08;47.87
76122;BME280;64853;53.200;6.080;2023-05-08T01:49:07;102222.59;;;20.07;47.53
76122;BME280;64853;53.200;6.080;2023-05-08T01:54:04;102219.22;;;20.05;47.96
76122;BME280;64853;53.200;6.080;2023-05-08T01:58:57;102222.28;;;20.04;47.56
76122;BME280;64853;53.200;6.080;2023-05-08T02:03:50;102227.81;;;20.04;47.46
76122;BME280;64853;53.200;6.080;2023-05-08T02:08:43;102225.31;;;20.02;47.41
76122;BME280;64853;53.200;6.080;2023-05-08T02:13:38;102238.31;;;20.01;47.51
76122;BME280;64853;53.200;6.080;2023-05-08T02:18:30;102241.34;;;20.00;47.92
76122;BME280;64853;53.200;6.080;2023-05-08T02:23:24;102245.22;;;19.99;47.69
76122;BME280;64853;53.200;6.080;2023-05-08T02:28:17;102248.25;;;19.97;47.29
76122;BME280;64853;53.200;6.080;2023-05-08T02:33:11;102245.75;;;19.96;47.70
76122;BME280;64853;53.200;6.080;2023-05-08T02:38:04;102253.22;;;19.95;47.54
76122;BME280;64853;53.200;6.080;2023-05-08T02:43:00;102245.19;;;19.94;47.75
76122;BME280;64853;53.200;6.080;2023-05-08T02:47:58;102250.16;;;19.92;47.41
76122;BME280;64853;53.200;6.080;2023-05-08T02:52:58;102250.16;;;19.92;47.26
76122;BME280;64853;53.200;6.080;2023-05-08T02:58:03;102243.22;;;19.89;47.58
76122;BME280;64853;53.200;6.080;2023-05-08T03:02:59;102238.78;;;19.88;47.70
76122;BME280;64853;53.200;6.080;2023-05-08T03:13:56;102230.72;;;19.81;47.13
76122;BME280;64853;53.200;6.080;2023-05-08T03:18:56;102231.56;;;19.82;47.63
76122;BME280;64853;53.200;6.080;2023-05-08T03:23:51;102230.72;;;19.81;47.58
76122;BME280;64853;53.200;6.080;2023-05-08T03:28:45;102229.06;;;19.80;47.65
76122;BME280;64853;53.200;6.080;2023-05-08T03:33:40;102227.38;;;19.79;47.20
76122;BME280;64853;53.200;6.080;2023-05-08T03:38:33;102213.81;;;19.78;47.10
76122;BME280;64853;53.200;6.080;2023-05-08T03:43:25;102216.84;;;19.76;47.33
76122;BME280;64853;53.200;6.080;2023-05-08T03:48:18;102204.13;;;19.75;47.28
76122;BME280;64853;53.200;6.080;2023-05-08T03:53:13;102205.22;;;19.74;47.43
76122;BME280;64853;53.200;6.080;2023-05-08T03:58:09;102207.16;;;19.74;47.20
76122;BME280;64853;53.200;6.080;2023-05-08T04:03:11;102193.59;;;19.72;47.34
76122;BME280;64853;53.200;6.080;2023-05-08T04:08:08;102201.31;;;19.70;47.25
76122;BME280;64853;53.200;6.080;2023-05-08T04:13:09;102195.22;;;19.68;47.37
76122;BME280;64853;53.200;6.080;2023-05-08T04:18:05;102198.00;;;19.68;46.76
76122;BME280;64853;53.200;6.080;2023-05-08T04:22:59;102207.38;;;19.67;46.73
76122;BME280;64853;53.200;6.080;2023-05-08T04:27:51;102206.56;;;19.67;46.55
76122;BME280;64853;53.200;6.080;2023-05-08T04:32:46;102206.81;;;19.65;47.13
76122;BME280;64853;53.200;6.080;2023-05-08T04:37:40;102215.13;;;19.65;46.65
76122;BME280;64853;53.200;6.080;2023-05-08T04:42:32;102222.84;;;19.63;46.96
76122;BME280;64853;53.200;6.080;2023-05-08T04:47:25;102222.03;;;19.62;46.53
76122;BME280;64853;53.200;6.080;2023-05-08T04:52:18;102221.44;;;19.60;46.63
76122;BME280;64853;53.200;6.080;2023-05-08T04:57:10;102229.72;;;19.60;46.53
76122;BME280;64853;53.200;6.080;2023-05-08T05:02:01;102228.09;;;19.59;47.05
76122;BME280;64853;53.200;6.080;2023-05-08T05:06:55;102231.13;;;19.58;46.68
76122;BME280;64853;53.200;6.080;2023-05-08T05:11:47;102228.59;;;19.56;46.57
76122;BME280;64853;53.200;6.080;2023-05-08T05:16:39;102244.31;;;19.56;46.81
76122;BME280;64853;53.200;6.080;2023-05-08T05:21:30;102255.38;;;19.56;46.46
76122;BME280;64853;53.200;6.080;2023-05-08T05:26:22;102248.19;;;19.55;46.85
76122;BME280;64853;53.200;6.080;2023-05-08T05:31:14;102252.59;;;19.56;46.54
76122;BME280;64853;53.200;6.080;2023-05-08T05:36:06;102246.53;;;19.54;46.75
76122;BME280;64853;53.200;6.080;2023-05-08T05:40:58;102259.25;;;19.55;46.88
76122;BME280;64853;53.200;6.080;2023-05-08T05:45:49;102257.56;;;19.54;46.56
76122;BME280;64853;53.200;6.080;2023-05-08T05:50:42;102264.44;;;19.51;47.31
76122;BME280;64853;53.200;6.080;2023-05-08T05:55:33;102268.09;;;19.57;47.38
76122;BME280;64853;53.200;6.080;2023-05-08T06:00:25;102265.19;;;19.69;48.28
76122;BME280;64853;53.200;6.080;2023-05-08T06:05:16;102263.69;;;19.88;47.74
76122;BME280;64853;53.200;6.080;2023-05-08T06:10:10;102269.28;;;19.98;47.32
76122;BME280;64853;53.200;6.080;2023-05-08T06:15:03;102262.63;;;19.94;47.20
76122;BME280;64853;53.200;6.080;2023-05-08T06:19:54;102260.19;;;20.03;47.20
76122;BME280;64853;53.200;6.080;2023-05-08T06:24:46;102262.44;;;20.11;47.45
76122;BME280;64853;53.200;6.080;2023-05-08T06:29:39;102256.13;;;20.21;47.69
76122;BME280;64853;53.200;6.080;2023-05-08T06:34:30;102258.09;;;20.26;46.55
76122;BME280;64853;53.200;6.080;2023-05-08T06:39:22;102260.31;;;20.24;46.32
76122;BME280;64853;53.200;6.080;2023-05-08T06:44:13;102261.66;;;20.21;46.48
76122;BME280;64853;53.200;6.080;2023-05-08T06:49:06;102258.59;;;20.17;47.02
76122;BME280;64853;53.200;6.080;2023-05-08T06:53:58;102251.16;;;20.18;46.69
76122;BME280;64853;53.200;6.080;2023-05-08T06:58:49;102240.91;;;20.18;46.80
76122;BME280;64853;53.200;6.080;2023-05-08T07:03:40;102249.22;;;20.24;46.65
76122;BME280;64853;53.200;6.080;2023-05-08T07:08:33;102249.22;;;20.24;47.83
76122;BME280;64853;53.200;6.080;2023-05-08T07:13:25;102245.38;;;20.25;47.69
76122;BME280;64853;53.200;6.080;2023-05-08T07:18:16;102241.22;;;20.27;47.42
76122;BME280;64853;53.200;6.080;2023-05-08T07:23:08;102245.66;;;20.28;47.47
76122;BME280;64853;53.200;6.080;2023-05-08T07:28:01;102241.47;;;20.26;47.33
76122;BME280;64853;53.200;6.080;2023-05-08T07:32:52;102235.69;;;20.27;47.00
76122;BME280;64853;53.200;6.080;2023-05-08T07:37:44;102225.47;;;20.28;47.16
76122;BME280;64853;53.200;6.080;2023-05-08T07:42:39;102234.84;;;20.27;47.32
76122;BME280;64853;53.200;6.080;2023-05-08T07:47:32;102242.06;;;20.28;47.25
76122;BME280;64853;53.200;6.080;2023-05-08T07:52:24;102254.50;;;20.30;46.67
76122;BME280;64853;53.200;6.080;2023-05-08T07:57:15;102241.53;;;20.31;46.76
76122;BME280;64853;53.200;6.080;2023-05-08T08:02:06;102246.81;;;20.32;46.93
76122;BME280;64853;53.200;6.080;2023-05-08T08:06:59;102240.41;;;20.32;46.39
76122;BME280;64853;53.200;6.080;2023-05-08T08:11:51;102240.41;;;20.32;46.49
76122;BME280;64853;53.200;6.080;2023-05-08T08:16:44;102233.22;;;20.31;46.16
76122;BME280;64853;53.200;6.080;2023-05-08T08:21:36;102240.41;;;20.32;45.98
76122;BME280;64853;53.200;6.080;2023-05-08T08:26:33;102237.09;;;20.30;46.30
76122;BME280;64853;53.200;6.080;2023-05-08T08:31:24;102234.88;;;20.32;45.95
76122;BME280;64853;53.200;6.080;2023-05-08T08:36:15;102243.19;;;20.32;46.07
76122;BME280;64853;53.200;6.080;2023-05-08T08:41:07;102222.16;;;20.31;46.09
76122;BME280;64853;53.200;6.080;2023-05-08T08:46:01;102222.44;;;20.29;46.36
76122;BME280;64853;53.200;6.080;2023-05-08T08:50:58;102223.81;;;20.32;45.82
76122;BME280;64853;53.200;6.080;2023-05-08T08:55:51;102221.03;;;20.32;46.25
76122;BME280;64853;53.200;6.080;2023-05-08T09:00:45;102220.78;;;20.33;46.12
76122;BME280;64853;53.200;6.080;2023-05-08T09:05:39;102212.22;;;20.35;46.15
76122;BME280;64853;53.200;6.080;2023-05-08T09:10:31;102215.56;;;20.37;46.35
76122;BME280;64853;53.200;6.080;2023-05-08T09:15:22;102220.25;;;20.36;45.84
76122;BME280;64853;53.200;6.080;2023-05-08T09:20:14;102221.13;;;20.37;45.82
76122;BME280;64853;53.200;6.080;2023-05-08T09:25:08;102214.19;;;20.40;46.17
76122;BME280;64853;53.200;6.080;2023-05-08T09:30:02;102214.47;;;20.43;45.68
76122;BME280;64853;53.200;6.080;2023-05-08T09:34:53;102217.28;;;20.48;45.80
76122;BME280;64853;53.200;6.080;2023-05-08T09:39:45;102218.09;;;20.49;46.08
76122;BME280;64853;53.200;6.080;2023-05-08T09:44:46;102210.63;;;20.49;46.25
76122;BME280;64853;53.200;6.080;2023-05-08T09:49:38;102222.28;;;20.51;46.35
76122;BME280;64853;53.200;6.080;2023-05-08T09:54:30;102222.00;;;20.53;46.72
76122;BME280;64853;53.200;6.080;2023-05-08T09:59:22;102217.84;;;20.55;47.08
76122;BME280;64853;53.200;6.080;2023-05-08T10:04:16;102210.94;;;20.58;46.40
76122;BME280;64853;53.200;6.080;2023-05-08T10:09:09;102204.00;;;20.61;46.83
76122;BME280;64853;53.200;6.080;2023-05-08T10:14:01;102196.00;;;20.64;46.39
76122;BME280;64853;53.200;6.080;2023-05-08T10:18:54;102196.56;;;20.66;46.15
76122;BME280;64853;53.200;6.080;2023-05-08T10:23:53;102192.97;;;20.71;46.19
76122;BME280;64853;53.200;6.080;2023-05-08T10:28:49;102177.16;;;20.71;46.69
76122;BME280;64853;53.200;6.080;2023-05-08T10:33:49;102184.13;;;20.74;46.60
76122;BME280;64853;53.200;6.080;2023-05-08T10:38:42;102185.47;;;20.77;46.27
76122;BME280;64853;53.200;6.080;2023-05-08T10:43:35;102180.81;;;20.77;46.39
76122;BME280;64853;53.200;6.080;2023-05-08T10:48:31;102189.38;;;20.81;46.74
76122;BME280;64853;53.200;6.080;2023-05-08T10:53:30;102185.78;;;20.80;46.64
76122;BME280;64853;53.200;6.080;2023-05-08T10:58:29;102176.38;;;20.91;48.11
76122;BME280;64853;53.200;6.080;2023-05-08T11:03:24;102185.88;;;21.21;47.67
76122;BME280;64853;53.200;6.080;2023-05-08T11:08:17;102180.88;;;21.23;47.02
76122;BME280;64853;53.200;6.080;2023-05-08T11:13:10;102177.28;;;21.28;47.39
76122;BME280;64853;53.200;6.080;2023-05-08T11:18:03;102171.97;;;21.37;47.19
76122;BME280;64853;53.200;6.080;2023-05-08T11:22:56;102168.69;;;21.45;46.41
76122;BME280;64853;53.200;6.080;2023-05-08T11:28:11;102168.09;;;21.58;47.13
76122;BME280;64853;53.200;6.080;2023-05-08T11:33:15;102154.19;;;21.63;46.36
76122;BME280;64853;53.200;6.080;2023-05-08T11:38:14;102163.91;;;21.71;46.95
76122;BME280;64853;53.200;6.080;2023-05-08T11:43:18;102159.75;;;21.74;47.06
76122;BME280;64853;53.200;6.080;2023-05-08T11:48:13;102161.44;;;21.80;47.35
76122;BME280;64853;53.200;6.080;2023-05-08T11:53:06;102158.31;;;21.76;47.73
76122;BME280;64853;53.200;6.080;2023-05-08T11:57:59;102159.75;;;21.74;47.74
76122;BME280;64853;53.200;6.080;2023-05-08T12:02:50;102163.63;;;21.73;47.40
76122;BME280;64853;53.200;6.080;2023-05-08T12:07:42;102157.53;;;21.71;47.84
76122;BME280;64853;53.200;6.080;2023-05-08T12:12:37;102151.44;;;21.69;47.49
76122;BME280;64853;53.200;6.080;2023-05-08T12:17:29;102149.22;;;21.71;48.00
76122;BME280;64853;53.200;6.080;2023-05-08T12:22:21;102144.19;;;21.73;47.83
76122;BME280;64853;53.200;6.080;2023-05-08T12:27:12;102148.66;;;21.74;48.89
76122;BME280;64853;53.200;6.080;2023-05-08T12:32:04;102145.31;;;21.77;48.24
76122;BME280;64853;53.200;6.080;2023-05-08T12:37:03;102141.69;;;21.76;48.30
76122;BME280;64853;53.200;6.080;2023-05-08T12:41:55;102133.34;;;21.76;47.94
76122;BME280;64853;53.200;6.080;2023-05-08T12:46:48;102140.34;;;21.79;47.84
76122;BME280;64853;53.200;6.080;2023-05-08T12:51:44;102136.44;;;21.80;47.91
76122;BME280;64853;53.200;6.080;2023-05-08T12:56:42;102129.50;;;21.83;47.53
76122;BME280;64853;53.200;6.080;2023-05-08T13:01:34;102135.31;;;21.86;47.50
76122;BME280;64853;53.200;6.080;2023-05-08T13:06:25;102123.06;;;21.97;47.15
76122;BME280;64853;53.200;6.080;2023-05-08T13:11:26;102116.38;;;21.98;47.24
76122;BME280;64853;53.200;6.080;2023-05-08T13:16:19;102115.25;;;22.05;47.37
76122;BME280;64853;53.200;6.080;2023-05-08T13:21:10;102116.38;;;22.04;47.31
76122;BME280;64853;53.200;6.080;2023-05-08T13:26:02;102104.13;;;22.10;47.59
76122;BME280;64853;53.200;6.080;2023-05-08T13:30:53;102103.56;;;22.18;47.06
76122;BME280;64853;53.200;6.080;2023-05-08T13:35:46;102097.44;;;22.16;47.64
76122;BME280;64853;53.200;6.080;2023-05-08T13:40:37;102091.88;;;22.21;47.30
76122;BME280;64853;53.200;6.080;2023-05-08T13:45:29;102089.88;;;22.27;47.78
76122;BME280;64853;53.200;6.080;2023-05-08T13:50:22;102084.00;;;22.33;47.38
76122;BME280;64853;53.200;6.080;2023-05-08T13:55:14;102071.75;;;22.40;47.69
76122;BME280;64853;53.200;6.080;2023-05-08T14:00:07;102079.00;;;22.35;47.81
76122;BME280;64853;53.200;6.080;2023-05-08T14:04:59;102064.59;;;22.28;48.51
76122;BME280;64853;53.200;6.080;2023-05-08T14:09:51;102063.78;;;22.28;48.15
76122;BME280;64853;53.200;6.080;2023-05-08T14:14:44;102060.78;;;22.19;48.45
76122;BME280;64853;53.200;6.080;2023-05-08T14:19:36;102065.81;;;22.12;49.04
76122;BME280;64853;53.200;6.080;2023-05-08T14:24:27;102065.53;;;22.08;49.55
76122;BME280;64853;53.200;6.080;2023-05-08T14:29:19;102063.09;;;22.07;49.33
76122;BME280;64853;53.200;6.080;2023-05-08T14:34:11;102070.84;;;22.05;50.02
76122;BME280;64853;53.200;6.080;2023-05-08T14:39:03;102067.81;;;22.01;50.41
76122;BME280;64853;53.200;6.080;2023-05-08T14:43:55;102082.81;;;22.00;50.42
76122;BME280;64853;53.200;6.080;2023-05-08T14:48:46;102076.72;;;21.98;51.09
76122;BME280;64853;53.200;6.080;2023-05-08T14:53:39;102081.44;;;21.97;50.84
76122;BME280;64853;53.200;6.080;2023-05-08T14:58:31;102096.44;;;21.91;51.64
76122;BME280;64853;53.200;6.080;2023-05-08T15:03:22;102073.66;;;21.99;53.66
76122;BME280;64853;53.200;6.080;2023-05-08T15:08:13;102071.38;;;22.12;52.98
76122;BME280;64853;53.200;6.080;2023-05-08T15:13:06;102064.13;;;22.21;52.58
76122;BME280;64853;53.200;6.080;2023-05-08T15:17:58;102070.16;;;22.28;52.36
76122;BME280;64853;53.200;6.080;2023-05-08T15:22:49;102059.88;;;22.29;52.40
76122;BME280;64853;53.200;6.080;2023-05-08T15:27:40;102062.38;;;22.30;52.16
76122;BME280;64853;53.200;6.080;2023-05-08T15:32:33;102059.06;;;22.28;52.05
76122;BME280;64853;53.200;6.080;2023-05-08T15:37:25;102046.84;;;22.29;52.11
76122;BME280;64853;53.200;6.080;2023-05-08T15:42:16;102051.25;;;22.30;51.85
76122;BME280;64853;53.200;6.080;2023-05-08T15:47:07;102055.69;;;22.31;52.01
76122;BME280;64853;53.200;6.080;2023-05-08T15:52:00;102056.00;;;22.30;52.01
76122;BME280;64853;53.200;6.080;2023-05-08T15:56:52;102052.94;;;22.31;51.91
76122;BME280;64853;53.200;6.080;2023-05-08T16:01:43;102062.06;;;22.32;52.42
76122;BME280;64853;53.200;6.080;2023-05-08T16:06:36;102055.41;;;22.33;51.95
76122;BME280;64853;53.200;6.080;2023-05-08T16:11:30;102052.34;;;22.34;51.90
76122;BME280;64853;53.200;6.080;2023-05-08T16:16:21;102055.66;;;22.36;52.04
76122;BME280;64853;53.200;6.080;2023-05-08T16:21:13;102055.66;;;22.36;51.99
76122;BME280;64853;53.200;6.080;2023-05-08T16:26:04;102047.63;;;22.35;51.72
76122;BME280;64853;53.200;6.080;2023-05-08T16:30:57;102051.25;;;22.30;52.01
76122;BME280;64853;53.200;6.080;2023-05-08T16:35:48;102047.94;;;22.28;51.88
76122;BME280;64853;53.200;6.080;2023-05-08T16:40:40;102058.22;;;22.28;52.27
76122;BME280;64853;53.200;6.080;2023-05-08T16:45:31;102054.59;;;22.27;52.32
76122;BME280;64853;53.200;6.080;2023-05-08T16:50:25;102055.75;;;22.26;52.11
76122;BME280;64853;53.200;6.080;2023-05-08T16:55:17;102055.47;;;22.28;52.10
76122;BME280;64853;53.200;6.080;2023-05-08T17:00:09;102046.28;;;22.27;52.23
76122;BME280;64853;53.200;6.080;2023-05-08T17:05:01;102041.88;;;22.26;52.15
76122;BME280;64853;53.200;6.080;2023-05-08T17:09:56;102037.41;;;22.25;52.00
76122;BME280;64853;53.200;6.080;2023-05-08T17:14:48;102038.56;;;22.24;52.50
76122;BME280;64853;53.200;6.080;2023-05-08T17:19:39;102041.91;;;22.21;52.42
76122;BME280;64853;53.200;6.080;2023-05-08T17:24:32;102045.78;;;22.20;52.42
76122;BME280;64853;53.200;6.080;2023-05-08T17:29:26;102045.78;;;22.20;52.44
76122;BME280;64853;53.200;6.080;2023-05-08T17:34:18;102048.84;;;22.18;52.09
76122;BME280;64853;53.200;6.080;2023-05-08T17:39:09;102046.66;;;22.15;52.37
76122;BME280;64853;53.200;6.080;2023-05-08T17:44:01;102037.22;;;22.16;52.96
76122;BME280;64853;53.200;6.080;2023-05-08T17:48:54;102035.78;;;22.24;53.88
76122;BME280;64853;53.200;6.080;2023-05-08T17:53:46;102035.44;;;22.31;54.41
76122;BME280;64853;53.200;6.080;2023-05-08T17:58:37;102034.03;;;22.33;54.23
76122;BME280;64853;53.200;6.080;2023-05-08T18:03:28;102040.97;;;22.36;54.34
76122;BME280;64853;53.200;6.080;2023-05-08T18:08:22;102046.22;;;22.38;53.93
76122;BME280;64853;53.200;6.080;2023-05-08T18:13:13;102040.09;;;22.41;53.71
76122;BME280;64853;53.200;6.080;2023-05-08T18:18:04;102037.03;;;22.42;53.63
76122;BME280;64853;53.200;6.080;2023-05-08T18:22:56;102036.47;;;22.45;53.52
76122;BME280;64853;53.200;6.080;2023-05-08T18:27:49;102044.25;;;22.48;53.55
76122;BME280;64853;53.200;6.080;2023-05-08T18:32:40;102048.38;;;22.51;53.45
76122;BME280;64853;53.200;6.080;2023-05-08T18:37:32;102060.03;;;22.53;53.42
76122;BME280;64853;53.200;6.080;2023-05-08T18:42:24;102056.13;;;22.54;52.97
76122;BME280;64853;53.200;6.080;2023-05-08T18:47:16;102055.53;;;22.57;53.08
76122;BME280;64853;53.200;6.080;2023-05-08T18:52:08;102057.22;;;22.58;52.96
76122;BME280;64853;53.200;6.080;2023-05-08T18:56:59;102042.22;;;22.59;52.85
76122;BME280;64853;53.200;6.080;2023-05-08T19:01:50;102052.75;;;22.62;53.28
76122;BME280;64853;53.200;6.080;2023-05-08T19:06:43;102055.25;;;22.64;53.07
76122;BME280;64853;53.200;6.080;2023-05-08T19:11:35;102055.25;;;22.64;52.92
76122;BME280;64853;53.200;6.080;2023-05-08T19:16:26;102048.25;;;22.66;52.98
76122;BME280;64853;53.200;6.080;2023-05-08T19:21:18;102039.34;;;22.69;52.60
76122;BME280;64853;53.200;6.080;2023-05-08T19:26:10;102043.78;;;22.70;52.79
76122;BME280;64853;53.200;6.080;2023-05-08T19:31:02;102042.13;;;22.69;52.54
76122;BME280;64853;53.200;6.080;2023-05-08T19:35:53;102040.44;;;22.68;52.63
76122;BME280;64853;53.200;6.080;2023-05-08T19:40:45;102046.84;;;22.69;52.26
76122;BME280;64853;53.200;6.080;2023-05-08T19:45:37;102048.25;;;22.66;51.75
76122;BME280;64853;53.200;6.080;2023-05-08T19:50:29;102049.97;;;22.62;51.91
76122;BME280;64853;53.200;6.080;2023-05-08T19:55:20;102043.63;;;22.57;51.63
76122;BME280;64853;53.200;6.080;2023-05-08T20:00:12;102039.22;;;22.50;51.51
76122;BME280;64853;53.200;6.080;2023-05-08T20:05:05;102040.63;;;22.48;51.55
76122;BME280;64853;53.200;6.080;2023-05-08T20:09:57;102040.63;;;22.43;51.20
76122;BME280;64853;53.200;6.080;2023-05-08T20:14:48;102034.53;;;22.41;51.56
76122;BME280;64853;53.200;6.080;2023-05-08T20:19:42;102034.31;;;22.37;51.17
76122;BME280;64853;53.200;6.080;2023-05-08T20:24:34;102033.44;;;22.36;51.26
76122;BME280;64853;53.200;6.080;2023-05-08T20:29:26;102035.69;;;22.34;51.50
76122;BME280;64853;53.200;6.080;2023-05-08T20:34:18;102039.03;;;22.31;51.14
76122;BME280;64853;53.200;6.080;2023-05-08T20:39:09;102031.28;;;22.28;50.85
76122;BME280;64853;53.200;6.080;2023-05-08T20:44:02;102019.13;;;22.24;51.10
76122;BME280;64853;53.200;6.080;2023-05-08T20:48:54;102033.56;;;22.21;51.09
76122;BME280;64853;53.200;6.080;2023-05-08T20:53:45;102027.47;;;22.19;50.97
76122;BME280;64853;53.200;6.080;2023-05-08T20:58:36;102027.22;;;22.15;50.76
76122;BME280;64853;53.200;6.080;2023-05-08T21:03:29;102035.81;;;22.14;50.63
76122;BME280;64853;53.200;6.080;2023-05-08T21:08:21;102029.19;;;22.10;50.71
76122;BME280;64853;53.200;6.080;2023-05-08T21:13:13;102022.28;;;22.07;50.82
76122;BME280;64853;53.200;6.080;2023-05-08T21:18:04;102020.06;;;22.04;50.50
76122;BME280;64853;53.200;6.080;2023-05-08T21:22:57;102023.94;;;22.03;50.85
76122;BME280;64853;53.200;6.080;2023-05-08T21:27:49;102017.88;;;22.01;50.34
76122;BME280;64853;53.200;6.080;2023-05-08T21:32:40;102022.03;;;21.98;50.46
76122;BME280;64853;53.200;6.080;2023-05-08T21:37:31;102025.38;;;21.95;50.79
76122;BME280;64853;53.200;6.080;2023-05-08T21:42:24;102010.97;;;21.93;50.42
76122;BME280;64853;53.200;6.080;2023-05-08T21:47:16;101994.59;;;21.92;50.52
76122;BME280;64853;53.200;6.080;2023-05-08T21:52:08;101994.34;;;21.88;50.75
76122;BME280;64853;53.200;6.080;2023-05-08T21:56:59;101991.88;;;21.87;50.58
76122;BME280;64853;53.200;6.080;2023-05-08T22:01:52;101987.72;;;21.84;50.41
76122;BME280;64853;53.200;6.080;2023-05-08T22:06:44;101979.97;;;21.81;50.41
76122;BME280;64853;53.200;6.080;2023-05-08T22:11:35;101968.88;;;21.81;50.18
76122;BME280;64853;53.200;6.080;2023-05-08T22:16:26;101969.16;;;21.79;50.39
76122;BME280;64853;53.200;6.080;2023-05-08T22:21:19;101957.78;;;21.76;50.47
76122;BME280;64853;53.200;6.080;2023-05-08T22:26:11;101965.56;;;21.74;50.40
76122;BME280;64853;53.200;6.080;2023-05-08T22:31:02;101972.22;;;21.73;50.17
76122;BME280;64853;53.200;6.080;2023-05-08T22:35:53;101968.91;;;21.71;50.60
76122;BME280;64853;53.200;6.080;2023-05-08T22:40:46;101938.97;;;21.68;50.12
76122;BME280;64853;53.200;6.080;2023-05-08T22:45:37;101946.75;;;21.66;50.04
76122;BME280;64853;53.200;6.080;2023-05-08T22:50:29;101938.72;;;21.64;50.38
76122;BME280;64853;53.200;6.080;2023-05-08T22:55:20;101931.78;;;21.61;50.29
76122;BME280;64853;53.200;6.080;2023-05-08T23:00:14;101920.97;;;21.60;50.29
76122;BME280;64853;53.200;6.080;2023-05-08T23:05:07;101933.44;;;21.57;50.49
76122;BME280;64853;53.200;6.080;2023-05-08T23:09:58;101909.63;;;21.56;49.95
76122;BME280;64853;53.200;6.080;2023-05-08T23:14:50;101907.44;;;21.53;50.06
76122;BME280;64853;53.200;6.080;2023-05-08T23:19:43;101909.66;;;21.51;49.94
76122;BME280;64853;53.200;6.080;2023-05-08T23:24:35;101898.84;;;21.50;50.08
76122;BME280;64853;53.200;6.080;2023-05-08T23:29:27;101885.28;;;21.48;49.94
76122;BME280;64853;53.200;6.080;2023-05-08T23:34:19;101878.06;;;21.47;49.89
76122;BME280;64853;53.200;6.080;2023-05-08T23:39:11;101865.59;;;21.44;50.05
76122;BME280;64853;53.200;6.080;2023-05-08T23:44:03;101873.09;;;21.44;50.44
76122;BME280;64853;53.200;6.080;2023-05-08T23:48:55;101868.66;;;21.43;49.97
76122;BME280;64853;53.200;6.080;2023-05-08T23:53:46;101868.13;;;21.41;50.03
76122;BME280;64853;53.200;6.080;2023-05-08T23:58:40;101852.88;;;21.38;50.30
